createdAt,value
2023-03-23T15:57:53.827Z,99948.44
2023-03-23T16:02:05.668Z,99947.59
2023-03-23T16:06:23.698Z,99939.94
2023-03-23T16:10:37.327Z,99921.75
2023-03-23T16:14:48.934Z,99940.59
2023-03-23T16:19:00.587Z,99934.38
2023-03-23T16:23:12.347Z,99945.19
2023-03-23T16:27:23.928Z,99923.03
2023-03-23T16:31:35.726Z,99943.97
2023-03-23T16:35:47.416Z,99938.91
2023-03-23T16:39:59.283Z,99950.63
2023-03-23T16:44:10.870Z,99943.66
2023-03-23T16:48:23.180Z,99956.19
2023-03-23T16:52:34.884Z,99968.97
2023-03-23T16:56:58.100Z,99960.06
2023-03-23T17:01:09.882Z,99969.81
2023-03-23T17:05:22.802Z,99943.84
2023-03-23T17:09:34.518Z,99953.88
2023-03-23T17:13:46.139Z,99953.09
2023-03-23T17:17:57.872Z,99951.72
2023-03-23T17:22:09.555Z,99952.81
2023-03-23T17:26:21.220Z,99939.84
2023-03-23T17:30:32.951Z,99943.66
2023-03-23T17:34:45.082Z,99941.22
2023-03-23T17:38:56.685Z,99947.44
2023-03-23T17:43:08.372Z,99952.03
2023-03-23T17:47:19.977Z,99935.78
2023-03-23T17:51:31.805Z,99945.00
2023-03-23T17:55:43.843Z,99946.63
2023-03-23T17:59:55.880Z,99942.03
2023-03-23T18:04:07.556Z,99923.09
2023-03-23T18:08:19.227Z,99939.59
2023-03-23T18:12:30.876Z,99931.19
2023-03-23T18:16:42.582Z,99937.69
2023-03-23T18:21:07.510Z,99910.13
2023-03-23T18:25:19.263Z,99907.97
2023-03-23T18:29:31.002Z,99909.31
2023-03-23T18:33:46.714Z,99905.78
2023-03-23T18:37:58.507Z,99902.00
2023-03-23T18:42:10.132Z,99907.16
2023-03-23T18:46:22.307Z,99892.81
2023-03-23T18:50:33.993Z,99887.41
2023-03-23T18:54:45.883Z,99890.91
2023-03-23T18:58:57.684Z,99885.78
2023-03-23T19:03:12.273Z,99880.91
2023-03-23T19:07:23.944Z,99874.19
2023-03-23T19:11:35.711Z,99871.22
2023-03-23T19:15:47.471Z,99861.47
2023-03-23T19:19:59.290Z,99860.66
2023-03-23T19:24:11.613Z,99843.09
2023-03-23T19:29:05.563Z,99852.03
2023-03-23T19:32:56.068Z,99833.09
2023-03-23T19:37:11.154Z,99822.28
2023-03-23T19:45:37.002Z,99820.94
2023-03-23T19:49:48.743Z,99804.72
2023-03-23T19:54:01.044Z,99820.09
2023-03-23T19:58:14.039Z,99819.59
2023-03-23T20:02:25.951Z,99795.81
2023-03-23T20:06:38.258Z,99812.56
2023-03-23T20:10:49.811Z,99798.22
2023-03-23T20:15:01.731Z,99794.16
2023-03-23T20:19:13.385Z,99799.84
2023-03-23T20:23:25.394Z,99783.34
2023-03-23T20:27:37.946Z,99789.03
2023-03-23T20:31:50.921Z,99788.50
2023-03-23T20:36:04.919Z,99789.31
2023-03-23T20:40:16.625Z,99782.00
2023-03-23T20:44:31.109Z,99781.19
2023-03-23T20:48:42.802Z,99777.94
2023-03-23T20:52:54.798Z,99776.06
2023-03-23T20:57:08.258Z,99768.72
2023-03-23T21:01:22.037Z,99772.22
2023-03-23T21:05:34.078Z,99766.81
2023-03-23T21:09:45.838Z,99751.16
2023-03-23T21:13:57.449Z,99752.50
2023-03-23T21:18:10.178Z,99756.31
2023-03-23T21:22:22.373Z,99745.72
2023-03-23T21:26:34.260Z,99737.34
2023-03-23T21:30:48.354Z,99730.09
2023-03-23T21:35:02.651Z,99722.22
2023-03-23T21:39:15.307Z,99706.56
2023-03-23T21:43:27.899Z,99710.63
2023-03-23T21:47:43.321Z,99692.25
2023-03-23T21:51:54.915Z,99694.13
2023-03-23T21:56:09.615Z,99690.34
2023-03-23T22:00:21.520Z,99686.28
2023-03-23T22:04:33.146Z,99685.78
2023-03-23T22:08:46.464Z,99668.50
2023-03-23T22:12:58.113Z,99659.59
2023-03-23T22:17:10.587Z,99662.59
2023-03-23T22:21:25.473Z,99662.88
2023-03-23T22:25:37.402Z,99636.16
2023-03-23T22:29:49.044Z,99632.66
2023-03-23T22:34:01.604Z,99633.16
2023-03-23T22:38:13.263Z,99628.06
2023-03-23T22:42:25.109Z,99632.09
2023-03-23T22:46:36.773Z,99610.22
2023-03-23T22:50:48.870Z,99606.47
2023-03-23T22:55:00.573Z,99611.84
2023-03-23T22:59:12.328Z,99593.78
2023-03-23T23:03:24.637Z,99581.09
2023-03-23T23:07:37.383Z,99592.72
2023-03-23T23:11:49.056Z,99566.25
2023-03-23T23:16:02.075Z,99560.06
2023-03-23T23:20:14.154Z,99554.13
2023-03-23T23:24:26.556Z,99555.22
2023-03-23T23:28:38.136Z,99553.06
2023-03-23T23:32:52.256Z,99550.09
2023-03-23T23:37:03.891Z,99538.50
2023-03-23T23:41:15.685Z,99542.00
2023-03-23T23:45:27.762Z,99542.56
2023-03-23T23:49:40.324Z,99532.59
2023-03-23T23:53:53.607Z,99507.53
2023-03-23T23:58:05.656Z,99511.56
